Terminal Aerodrome Forecast
Issued by NWS Sioux Falls, SD

Home | Current Version | Previous Version | Text Only | Print | Product List | Glossary On
Versions: 1 2 3 4 5 6 7 8 9 10 11 12 13 14 15 16 17 18 19 20 21 22 23 24 25 26
000
FTUS43 KFSD 261659 AAA
TAFSUX
TAF AMD
KSUX 261659Z 2617/2712 06009KT P6SM BKN020
     FM262200 08014G22KT P6SM VCTS BKN025CB
     FM270000 08016G23KT P6SM SHRA OVC025
     FM270300 08019G27KT 6SM TSRA BKN030CB
     FM270600 10020G27KT P6SM SHRA OVC035
     FM270800 09019G26KT 5SM SHRA OVC010=

USA.gov is the U.S. government's official web portal to all federal, state and local government web resources and services.